createdAt,value
2017-03-14T00:01:07.432Z,8.42
2017-03-14T00:02:18.193Z,8.4
2017-03-14T00:03:28.561Z,8.35
2017-03-14T00:04:38.915Z,8.42
2017-03-14T00:05:49.688Z,8.32
2017-03-14T00:07:00.056Z,8.35
2017-03-14T00:08:10.424Z,8.32
2017-03-14T00:09:21.199Z,8.39
2017-03-14T00:10:31.970Z,8.26
2017-03-14T00:11:42.329Z,8.31
2017-03-14T00:12:53.326Z,8.31
2017-03-14T00:14:04.133Z,8.32
2017-03-14T00:15:14.928Z,8.21
2017-03-14T00:16:25.700Z,8.28
2017-03-14T00:17:36.086Z,8.25
2017-03-14T00:18:46.475Z,8.24
2017-03-14T00:19:57.249Z,8.28
2017-03-14T00:21:08.013Z,8.31
2017-03-14T00:22:18.382Z,8.26
2017-03-14T00:23:29.205Z,8.25
2017-03-14T00:24:40.016Z,8.25
2017-03-14T00:25:50.773Z,8.35
2017-03-14T00:27:01.144Z,8.26
2017-03-14T00:28:11.935Z,8.19
2017-03-14T00:29:22.693Z,8.19
2017-03-14T00:30:33.517Z,8.16
2017-03-14T00:31:44.278Z,8.24
2017-03-14T00:32:55.033Z,8.13
2017-03-14T00:34:05.819Z,8.22
2017-03-14T00:35:16.557Z,8.17
2017-03-14T00:36:26.925Z,8.26
2017-03-14T00:37:37.698Z,8.22
2017-03-14T00:38:48.464Z,8.42
2017-03-14T00:39:58.849Z,8.28
2017-03-14T00:41:09.607Z,8.34
2017-03-14T00:42:19.563Z,8.29
2017-03-14T00:43:29.917Z,8.39
2017-03-14T00:44:40.696Z,8.35
2017-03-14T00:45:51.466Z,8.42
2017-03-14T00:47:02.225Z,8.39
2017-03-14T00:48:12.620Z,8.31
2017-03-14T00:49:23.385Z,8.31
2017-03-14T00:50:34.187Z,8.35
2017-03-14T00:51:44.956Z,8.32
2017-03-14T00:52:55.705Z,8.31
2017-03-14T00:54:06.096Z,8.31
2017-03-14T00:55:16.463Z,8.22
2017-03-14T00:56:27.212Z,8.24
2017-03-14T00:57:37.976Z,8.28
2017-03-14T00:58:48.766Z,8.29
2017-03-14T00:59:59.549Z,8.21
2017-03-14T01:01:10.317Z,8.19
2017-03-14T01:02:21.080Z,8.14
2017-03-14T01:03:31.043Z,8.13
2017-03-14T01:04:41.445Z,8.13
2017-03-14T01:05:51.803Z,8.19
2017-03-14T01:07:02.575Z,8.17
2017-03-14T01:08:13.355Z,8.22
2017-03-14T01:09:24.128Z,8.17
2017-03-14T01:10:34.917Z,8.13
2017-03-14T01:11:45.684Z,8.13
2017-03-14T01:12:56.453Z,8.1
2017-03-14T01:14:07.198Z,8.1
2017-03-14T01:15:17.556Z,8.13
2017-03-14T01:16:28.328Z,8.22
2017-03-14T01:17:38.714Z,8.17
2017-03-14T01:18:49.496Z,8.28
2017-03-14T01:19:59.869Z,8.22
2017-03-14T01:21:10.657Z,8.19
2017-03-14T01:22:21.407Z,8.19
2017-03-14T01:23:32.158Z,8.19
2017-03-14T01:24:42.961Z,8.22
2017-03-14T01:25:53.730Z,8.19
2017-03-14T01:27:04.109Z,8.16
2017-03-14T01:28:14.120Z,8.16
2017-03-14T01:29:24.895Z,8.25
2017-03-14T01:30:35.645Z,8.21
2017-03-14T01:31:46.422Z,8.11
2017-03-14T01:32:56.809Z,8.09
2017-03-14T01:34:07.161Z,8.13
2017-03-14T01:35:17.929Z,8.01
2017-03-14T01:36:28.319Z,8.09
2017-03-14T01:37:39.093Z,8.07
2017-03-14T01:38:49.465Z,8.04
2017-03-14T01:40:00.245Z,8.13
2017-03-14T01:41:11.019Z,8.06
2017-03-14T01:42:21.391Z,8.03
2017-03-14T01:43:31.767Z,8.09
2017-03-14T01:44:42.535Z,7.99
2017-03-14T01:45:53.303Z,7.98
2017-03-14T01:47:04.088Z,7.92
2017-03-14T01:48:14.460Z,7.93
2017-03-14T01:49:25.238Z,8.03
2017-03-14T01:50:36.010Z,7.98
2017-03-14T01:51:46.762Z,7.98
2017-03-14T01:52:57.146Z,7.95
2017-03-14T01:54:07.927Z,8.01
2017-03-14T01:55:18.303Z,7.86
2017-03-14T01:56:29.075Z,8.01
2017-03-14T01:57:39.823Z,8.01
2017-03-14T01:58:50.589Z,8.04
2017-03-14T02:00:00.961Z,7.92
2017-03-14T02:01:11.731Z,7.93
2017-03-14T02:02:22.506Z,7.93
2017-03-14T02:03:33.327Z,8.04
2017-03-14T02:04:44.092Z,7.98
2017-03-14T02:05:54.845Z,8.03
2017-03-14T02:07:05.609Z,8.03
2017-03-14T02:08:15.974Z,7.95
2017-03-14T02:09:26.748Z,8.07
2017-03-14T02:10:37.098Z,8.04
2017-03-14T02:11:47.871Z,7.95
2017-03-14T02:12:58.650Z,8.04
2017-03-14T02:14:09.419Z,8.07
2017-03-14T02:15:20.180Z,7.93
2017-03-14T02:16:30.970Z,7.91
2017-03-14T02:17:41.729Z,8.06
2017-03-14T02:18:52.503Z,7.98
2017-03-14T02:20:03.261Z,7.95
2017-03-14T02:21:14.009Z,7.98
2017-03-14T02:22:24.786Z,7.96
2017-03-14T02:23:35.189Z,7.98
2017-03-14T02:24:45.947Z,7.92
2017-03-14T02:25:56.308Z,7.93
2017-03-14T02:27:07.094Z,7.96
2017-03-14T02:28:17.447Z,8.01
2017-03-14T02:29:28.219Z,7.93
2017-03-14T02:30:39.014Z,7.95
2017-03-14T02:31:49.758Z,7.98
2017-03-14T02:32:59.712Z,8.01
2017-03-14T02:34:09.677Z,7.99
2017-03-14T02:35:20.034Z,7.92
2017-03-14T02:36:30.799Z,8.01
2017-03-14T02:37:41.561Z,8.01
2017-03-14T02:38:52.337Z,8.04
2017-03-14T02:40:03.114Z,7.91
2017-03-14T02:41:13.869Z,7.96
2017-03-14T02:42:24.624Z,8.04
2017-03-14T02:43:35.391Z,7.99
2017-03-14T02:44:46.151Z,7.95
2017-03-14T02:45:56.928Z,7.95
2017-03-14T02:47:07.701Z,7.99
2017-03-14T02:48:18.452Z,7.86
2017-03-14T02:49:29.210Z,7.88
2017-03-14T02:50:39.983Z,7.85
2017-03-14T02:51:50.733Z,7.86
2017-03-14T02:53:01.129Z,7.78
2017-03-14T02:54:12.121Z,7.82
2017-03-14T02:55:22.507Z,7.74
2017-03-14T02:56:33.258Z,7.67
2017-03-14T02:57:44.052Z,7.61
2017-03-14T02:58:54.425Z,7.64
2017-03-14T03:00:05.190Z,7.52
2017-03-14T03:01:15.983Z,7.51
2017-03-14T03:32:11.094Z,3.93
2017-03-14T03:33:21.433Z,3.85
2017-03-14T03:34:31.797Z,3.84
2017-03-14T03:35:42.576Z,3.81
2017-03-14T03:36:53.316Z,3.99
2017-03-14T03:38:04.073Z,4
2017-03-14T03:39:14.842Z,4.14
2017-03-14T03:40:25.604Z,4.3
2017-03-14T03:41:36.368Z,4.36
2017-03-14T03:42:46.730Z,4.51
2017-03-14T03:43:57.493Z,4.72
2017-03-14T03:45:08.245Z,4.78
2017-03-14T03:46:19.003Z,5
2017-03-14T03:47:29.762Z,5.09
2017-03-14T03:48:40.534Z,5.23
2017-03-14T03:49:50.906Z,5.45
2017-03-14T03:51:01.690Z,5.46
2017-03-14T03:52:12.468Z,5.57
2017-03-14T03:53:23.254Z,5.7
2017-03-14T03:54:33.991Z,5.78
2017-03-14T03:55:44.751Z,5.8
2017-03-14T03:56:54.728Z,5.88
2017-03-14T03:58:05.486Z,5.92
2017-03-14T03:59:16.271Z,6.05
2017-03-14T04:00:27.043Z,6.07
2017-03-14T04:01:37.795Z,6.1
2017-03-14T04:02:48.565Z,6.26
2017-03-14T04:03:59.160Z,6.29
2017-03-14T04:05:09.936Z,6.39
2017-03-14T04:06:20.692Z,6.33
2017-03-14T04:07:31.485Z,6.54
2017-03-14T04:08:42.250Z,6.44
2017-03-14T04:09:53.016Z,6.54
2017-03-14T04:11:03.758Z,6.52
2017-03-14T04:12:14.109Z,6.54
2017-03-14T04:13:24.858Z,6.55
2017-03-14T04:14:35.653Z,6.62
2017-03-14T04:15:46.410Z,6.64
2017-03-14T04:16:56.778Z,6.68
2017-03-14T04:18:07.546Z,6.67
2017-03-14T04:19:18.307Z,6.64
2017-03-14T04:20:29.083Z,6.68
2017-03-14T04:21:39.836Z,6.67
2017-03-14T04:22:50.619Z,6.8
2017-03-14T04:24:01.367Z,6.82
2017-03-14T04:25:12.120Z,6.78
2017-03-14T04:26:22.887Z,6.91
2017-03-14T04:27:33.246Z,6.91
2017-03-14T04:28:44.019Z,6.94
2017-03-14T04:29:54.793Z,6.97
2017-03-14T04:31:05.552Z,7.09
2017-03-14T04:32:16.303Z,7.12
2017-03-14T04:33:27.066Z,7.16
2017-03-14T04:34:37.829Z,7.23
2017-03-14T04:35:48.590Z,7.21
2017-03-14T04:36:59.346Z,7.21
2017-03-14T04:38:10.128Z,7.34
2017-03-14T04:39:20.907Z,7.36
2017-03-14T04:40:31.660Z,7.36
2017-03-14T04:41:42.420Z,7.51
2017-03-14T04:42:52.802Z,7.48
2017-03-14T04:44:03.198Z,7.47
2017-03-14T04:45:13.983Z,7.54
2017-03-14T04:46:24.740Z,7.54
2017-03-14T04:47:35.504Z,7.71
2017-03-14T04:48:46.264Z,7.56
2017-03-14T04:49:56.639Z,7.63
2017-03-14T04:51:07.430Z,7.64
2017-03-14T04:52:17.803Z,7.75
2017-03-14T04:53:28.171Z,7.75
2017-03-14T04:54:38.930Z,7.77
2017-03-14T04:55:49.699Z,7.8
2017-03-14T04:57:00.472Z,7.92
2017-03-14T04:58:10.428Z,7.89
2017-03-14T04:59:21.199Z,7.85
2017-03-14T05:00:31.974Z,7.8
2017-03-14T05:01:42.337Z,7.89
2017-03-14T05:02:52.303Z,7.8
2017-03-14T05:04:03.071Z,7.78
2017-03-14T05:05:13.823Z,7.83
2017-03-14T05:06:24.593Z,7.93
2017-03-14T05:07:34.947Z,7.88
2017-03-14T05:08:45.708Z,7.98
2017-03-14T05:09:56.078Z,7.89
2017-03-14T05:11:06.069Z,7.83
2017-03-14T05:12:16.838Z,7.78
2017-03-14T05:13:27.619Z,7.78
2017-03-14T05:14:38.395Z,7.88
2017-03-14T05:15:48.758Z,7.92
2017-03-14T05:16:59.157Z,7.83
2017-03-14T05:18:09.936Z,7.92
2017-03-14T05:19:20.694Z,7.93
2017-03-14T05:20:31.437Z,7.92
2017-03-14T05:21:42.194Z,8.01
2017-03-14T05:22:52.977Z,7.96
2017-03-14T05:24:03.364Z,8.03
2017-03-14T05:25:14.134Z,8.07
2017-03-14T05:26:24.924Z,8.04
2017-03-14T05:27:35.694Z,8.1
2017-03-14T05:28:45.642Z,8.09
2017-03-14T05:29:56.410Z,8.07
2017-03-14T05:31:07.174Z,8.13
2017-03-14T05:32:17.573Z,8.17
2017-03-14T05:33:28.332Z,8.21
2017-03-14T05:34:39.107Z,8.14
2017-03-14T05:35:49.859Z,8.26
2017-03-14T05:37:00.209Z,8.21
2017-03-14T05:38:10.577Z,8.29
2017-03-14T05:39:20.940Z,8.32
2017-03-14T05:40:31.302Z,8.5
2017-03-14T05:41:42.105Z,8.42
2017-03-14T05:42:52.077Z,8.47
2017-03-14T05:44:02.461Z,8.44
2017-03-14T05:45:13.197Z,8.6
2017-03-14T05:46:23.966Z,8.54
2017-03-14T05:47:34.724Z,8.71
2017-03-14T05:48:45.485Z,8.69
2017-03-14T05:49:56.272Z,8.8
2017-03-14T05:51:06.641Z,8.77
2017-03-14T05:52:17.006Z,8.85
2017-03-14T05:53:27.360Z,8.76
2017-03-14T05:54:38.133Z,8.9
2017-03-14T05:55:48.885Z,8.94
2017-03-14T05:56:58.857Z,8.94
2017-03-14T05:58:09.616Z,9.01
2017-03-14T05:59:19.986Z,9.09
2017-03-14T06:00:30.774Z,9.2
2017-03-14T06:01:41.387Z,9.19
2017-03-14T06:02:51.749Z,9.14
2017-03-14T06:04:02.499Z,9.09
2017-03-14T06:05:13.257Z,9.26
2017-03-14T06:06:24.013Z,9.24
2017-03-14T06:07:34.789Z,9.26
2017-03-14T06:08:45.548Z,9.24
2017-03-14T06:09:56.309Z,9.29
2017-03-14T06:11:07.086Z,9.3
2017-03-14T06:12:17.854Z,9.34
2017-03-14T06:13:28.619Z,9.32
2017-03-14T06:14:39.390Z,9.41
2017-03-14T06:15:50.155Z,9.42
2017-03-14T06:17:00.916Z,9.47
2017-03-14T06:18:11.697Z,9.53
2017-03-14T06:19:22.474Z,9.59
2017-03-14T06:20:33.250Z,9.64
2017-03-14T06:21:44.022Z,9.59
2017-03-14T06:22:54.775Z,9.71
2017-03-14T06:24:05.583Z,9.72
2017-03-14T06:25:16.390Z,9.82
2017-03-14T06:26:26.751Z,9.84
2017-03-14T06:27:37.529Z,9.85
2017-03-14T06:28:48.313Z,9.89
2017-03-14T06:29:59.078Z,10
2017-03-14T06:31:09.853Z,10.03
2017-03-14T06:32:20.635Z,10.14
2017-03-14T06:33:31.419Z,10.11
2017-03-14T06:34:41.774Z,10.28
2017-03-14T06:35:52.535Z,10.26
2017-03-14T06:37:03.300Z,10.38
2017-03-14T06:38:14.056Z,10.35
2017-03-14T06:39:24.799Z,10.46
2017-03-14T06:40:35.602Z,10.47
2017-03-14T06:41:45.985Z,10.59
2017-03-14T06:42:56.747Z,10.69
2017-03-14T06:44:07.547Z,10.61
2017-03-14T06:45:18.330Z,10.76
2017-03-14T06:46:29.125Z,10.8
2017-03-14T06:47:39.910Z,10.77
2017-03-14T06:48:50.693Z,10.79
2017-03-14T06:50:01.718Z,10.83
2017-03-14T06:51:12.089Z,10.79
2017-03-14T06:52:22.870Z,10.83
2017-03-14T06:53:33.255Z,10.8
2017-03-14T06:54:44.034Z,10.83
2017-03-14T06:55:54.814Z,10.84
2017-03-14T06:57:05.200Z,10.85
2017-03-14T06:58:15.984Z,10.83
2017-03-14T06:59:26.754Z,10.87
2017-03-14T07:00:37.519Z,10.98
2017-03-14T07:01:48.279Z,11.09
2017-03-14T07:02:59.043Z,11.03
2017-03-14T07:04:09.804Z,11.06
2017-03-14T07:05:20.178Z,11.16
2017-03-14T07:06:30.565Z,11.2
2017-03-14T07:07:41.333Z,11.27
2017-03-14T07:08:52.137Z,11.27
2017-03-14T07:10:02.903Z,11.33
2017-03-14T07:11:13.680Z,11.43
2017-03-14T07:12:24.426Z,11.43
2017-03-14T07:13:35.214Z,11.48
2017-03-14T07:14:45.572Z,11.6
2017-03-14T07:15:56.341Z,11.67
2017-03-14T07:17:07.105Z,11.71
2017-03-14T07:18:17.870Z,11.73
2017-03-14T07:19:28.221Z,11.86
2017-03-14T07:20:39.003Z,11.81
2017-03-14T07:21:49.381Z,11.88
2017-03-14T07:23:00.147Z,12.07
2017-03-14T07:24:10.909Z,12.11
2017-03-14T07:25:21.677Z,12.11
2017-03-14T07:26:32.449Z,12.23
2017-03-14T07:27:43.207Z,12.31
2017-03-14T07:28:53.986Z,12.43
2017-03-14T07:30:04.760Z,12.52
2017-03-14T07:31:15.171Z,12.62
2017-03-14T07:32:25.936Z,12.73
2017-03-14T07:33:36.333Z,12.89
2017-03-14T07:34:47.102Z,12.99
2017-03-14T07:35:57.872Z,13.06
2017-03-14T07:37:08.621Z,13.17
2017-03-14T07:38:19.397Z,13.31
2017-03-14T07:39:30.178Z,13.35
2017-03-14T07:40:40.963Z,13.36
2017-03-14T07:41:51.743Z,13.35
2017-03-14T07:43:02.518Z,13.42
2017-03-14T07:44:13.323Z,13.47
2017-03-14T07:45:24.098Z,13.51
2017-03-14T07:46:34.864Z,13.6
2017-03-14T07:47:45.239Z,13.6
2017-03-14T07:48:56.001Z,13.53
2017-03-14T07:50:06.791Z,13.66
2017-03-14T07:51:17.551Z,13.73
2017-03-14T07:52:28.354Z,13.87
2017-03-14T07:53:39.136Z,13.83
2017-03-14T07:54:49.092Z,13.88
2017-03-14T07:55:59.856Z,13.94
2017-03-14T07:57:10.618Z,14.02
2017-03-14T07:58:21.387Z,14.05
2017-03-14T07:59:32.167Z,14.11
2017-03-14T08:00:42.943Z,14.19
2017-03-14T08:01:53.716Z,14.16
2017-03-14T08:03:04.476Z,14.13
2017-03-14T08:04:14.855Z,14.2
2017-03-14T08:05:25.664Z,14.23
2017-03-14T08:06:35.632Z,14.27
2017-03-14T08:07:46.393Z,14.27
2017-03-14T08:08:57.439Z,14.28
2017-03-14T08:10:08.203Z,14.3
2017-03-14T08:11:18.972Z,14.3
2017-03-14T08:12:29.756Z,14.27
2017-03-14T08:13:40.157Z,14.38
2017-03-14T08:14:50.545Z,14.39
2017-03-14T08:16:01.323Z,14.41
2017-03-14T08:17:11.700Z,14.44
2017-03-14T08:18:22.067Z,14.49
2017-03-14T08:19:32.812Z,14.63
2017-03-14T08:20:43.585Z,14.7
2017-03-14T08:21:53.560Z,14.89
2017-03-14T08:23:03.928Z,14.97
2017-03-14T08:24:14.690Z,15.2
2017-03-14T08:25:25.087Z,15.33
2017-03-14T08:26:35.861Z,15.38
2017-03-14T08:27:46.226Z,15.41
2017-03-14T08:28:56.988Z,15.49
2017-03-14T08:30:07.787Z,15.6
2017-03-14T08:31:18.545Z,15.65
2017-03-14T08:32:28.911Z,15.74
2017-03-14T08:33:39.272Z,15.88
2017-03-14T08:34:50.033Z,16.08
2017-03-14T08:36:00.815Z,16.29
2017-03-14T08:37:11.575Z,16.45
2017-03-14T08:38:22.376Z,16.37
2017-03-14T08:39:32.729Z,16.49
2017-03-14T08:40:43.527Z,16.54
2017-03-14T08:41:54.302Z,16.63
2017-03-14T08:43:05.110Z,16.65
2017-03-14T08:44:15.889Z,16.69
2017-03-14T08:45:26.638Z,16.67
2017-03-14T08:46:37.406Z,16.76
2017-03-14T08:47:47.796Z,16.82
2017-03-14T08:48:58.163Z,16.92
2017-03-14T08:50:08.517Z,16.94
2017-03-14T08:51:19.300Z,17.06
2017-03-14T08:52:30.069Z,17.1
2017-03-14T08:53:40.090Z,17.15
2017-03-14T08:54:50.862Z,17.17
2017-03-14T08:56:01.655Z,17.28
2017-03-14T08:57:12.400Z,17.31
2017-03-14T08:58:23.229Z,17.45
2017-03-14T08:59:33.989Z,17.63
2017-03-14T09:00:44.777Z,17.65
2017-03-14T09:01:55.538Z,17.63
2017-03-14T09:03:06.305Z,17.63
2017-03-14T09:04:17.072Z,17.54
2017-03-14T09:05:27.838Z,17.52
2017-03-14T09:06:37.824Z,17.57
2017-03-14T09:07:48.623Z,17.52
2017-03-14T09:08:58.996Z,17.49
2017-03-14T09:10:09.759Z,17.49
2017-03-14T09:11:20.537Z,17.54
2017-03-14T09:12:30.525Z,17.5
2017-03-14T09:13:40.899Z,17.55
2017-03-14T09:14:51.261Z,17.52
2017-03-14T09:16:02.026Z,17.5
2017-03-14T09:17:12.793Z,17.54
2017-03-14T09:18:23.160Z,17.54
2017-03-14T09:19:33.921Z,17.5
2017-03-14T09:20:44.711Z,17.46
2017-03-14T09:21:55.108Z,17.49
2017-03-14T09:23:05.866Z,17.42
2017-03-14T09:24:16.232Z,17.38
2017-03-14T09:25:26.996Z,17.42
2017-03-14T09:26:37.315Z,17.31
2017-03-14T09:27:48.075Z,17.35
2017-03-14T09:28:58.832Z,17.35
2017-03-14T09:30:09.643Z,17.22
2017-03-14T09:31:20.007Z,17.18
2017-03-14T09:32:30.602Z,16.9
2017-03-14T09:33:41.387Z,16.84
2017-03-14T09:34:51.761Z,16.66
2017-03-14T09:36:02.524Z,16.69
2017-03-14T09:37:14.262Z,16.72
2017-03-14T09:38:25.071Z,16.66
2017-03-14T09:39:35.857Z,16.88
2017-03-14T09:40:46.635Z,16.97
2017-03-14T09:41:57.424Z,16.74
2017-03-14T09:43:07.882Z,17.03
2017-03-14T09:44:18.683Z,16.7
2017-03-14T09:45:29.070Z,16.52
2017-03-14T09:46:39.757Z,16.55
2017-03-14T09:47:50.556Z,16.49
2017-03-14T09:49:01.340Z,16.27
2017-03-14T09:50:11.745Z,16.33
2017-03-14T09:51:24.292Z,16.13
2017-03-14T09:52:37.853Z,15.89
2017-03-14T09:53:48.669Z,15.71
2017-03-14T09:54:59.462Z,15.73
2017-03-14T09:56:10.236Z,15.65
2017-03-14T09:57:21.040Z,15.67
2017-03-14T09:58:31.416Z,15.75
2017-03-14T09:59:42.197Z,15.78
2017-03-14T10:00:52.557Z,15.88
2017-03-14T10:02:03.339Z,15.99
2017-03-14T10:03:14.102Z,16.11
2017-03-14T10:04:24.495Z,16.32
2017-03-14T10:05:34.909Z,16.54
2017-03-14T10:06:45.668Z,16.54
2017-03-14T10:07:56.033Z,16.72
2017-03-14T10:09:06.772Z,16.97
2017-03-14T10:10:17.513Z,17.09
2017-03-14T10:11:28.280Z,17.07
2017-03-14T10:12:39.101Z,17.22
2017-03-14T10:13:49.834Z,17.32
2017-03-14T10:15:00.584Z,17.47
2017-03-14T10:16:11.346Z,17.52
2017-03-14T10:17:22.116Z,17.55
2017-03-14T10:18:32.878Z,17.66
2017-03-14T10:19:43.638Z,17.66
2017-03-14T10:20:54.388Z,17.79
2017-03-14T10:22:05.146Z,17.94
2017-03-14T10:23:16.183Z,17.92
2017-03-14T10:24:26.529Z,17.94
2017-03-14T10:25:36.876Z,17.99
2017-03-14T10:26:47.213Z,18.08
2017-03-14T10:27:57.555Z,18.13
2017-03-14T10:29:07.918Z,18.34
2017-03-14T10:30:18.275Z,18.26
2017-03-14T10:31:28.324Z,18.45
2017-03-14T10:32:38.673Z,18.53
2017-03-14T10:33:49.021Z,18.6
2017-03-14T10:34:59.371Z,18.71
2017-03-14T10:36:09.726Z,18.74
2017-03-14T10:37:20.088Z,18.87
2017-03-14T10:38:30.435Z,18.93
2017-03-14T10:39:40.953Z,19.02
2017-03-14T10:40:51.298Z,19.17
2017-03-14T10:42:01.646Z,19.15
2017-03-14T10:43:12.016Z,19.07
2017-03-14T10:44:22.342Z,18.89
2017-03-14T10:45:32.683Z,18.56
2017-03-14T10:46:43.011Z,18.54
2017-03-14T10:47:53.351Z,18.51
2017-03-14T10:49:03.438Z,18.59
2017-03-14T10:50:13.835Z,18.75
2017-03-14T10:51:24.184Z,18.89
2017-03-14T10:52:34.535Z,18.89
2017-03-14T10:53:44.863Z,18.78
2017-03-14T10:54:55.209Z,18.93
2017-03-14T10:56:05.550Z,19.16
2017-03-14T10:57:15.898Z,19.05
2017-03-14T10:58:25.917Z,19.12
2017-03-14T10:59:36.252Z,19.1
2017-03-14T11:00:46.601Z,19.46
2017-03-14T11:01:56.951Z,19.56
2017-03-14T11:03:06.993Z,19.64
2017-03-14T11:04:17.321Z,19.75
2017-03-14T11:05:27.661Z,19.8
2017-03-14T11:06:37.694Z,19.85
2017-03-14T11:07:48.019Z,19.89
2017-03-14T11:08:58.385Z,19.95
2017-03-14T11:10:08.726Z,19.55
2017-03-14T11:11:18.760Z,19.46
2017-03-14T11:12:29.124Z,19.56
2017-03-14T11:13:39.337Z,19.64
2017-03-14T11:14:49.358Z,19.56
2017-03-14T11:15:59.403Z,19.34
2017-03-14T11:17:09.116Z,19
2017-03-14T11:18:19.454Z,18.97
2017-03-14T11:19:29.785Z,19.4
2017-03-14T11:20:40.117Z,19.45
2017-03-14T11:21:50.144Z,19.64
2017-03-14T11:23:00.480Z,19.85
2017-03-14T11:24:10.512Z,20.12
2017-03-14T11:25:20.877Z,20.23
2017-03-14T11:26:31.219Z,20.34
2017-03-14T11:27:41.570Z,20.56
2017-03-14T11:28:51.901Z,20.83
2017-03-14T11:30:02.262Z,20.4
2017-03-14T11:31:12.293Z,20.16
2017-03-14T11:32:22.632Z,20.23
2017-03-14T11:33:32.669Z,20.4
2017-03-14T11:34:43.007Z,20.56
2017-03-14T11:35:53.047Z,20.56
2017-03-14T11:37:03.389Z,20.91
2017-03-14T11:38:13.752Z,21.18
2017-03-14T11:39:23.794Z,21.33
2017-03-14T11:40:34.138Z,21.51
2017-03-14T11:41:44.162Z,21.78
2017-03-14T11:42:53.897Z,21.92
2017-03-14T11:44:03.939Z,22.09
2017-03-14T11:45:14.290Z,22.33
2017-03-14T11:46:24.610Z,22.44
2017-03-14T11:47:34.943Z,22.15
2017-03-14T11:48:45.320Z,22.24
2017-03-14T11:49:55.646Z,21.62
2017-03-14T11:51:05.672Z,21.15
2017-03-14T11:52:15.997Z,20.82
2017-03-14T11:53:26.015Z,20.44
2017-03-14T11:54:36.346Z,20.34
2017-03-14T11:55:46.061Z,20.3
2017-03-14T11:56:56.120Z,20.68
2017-03-14T11:58:06.156Z,21.18
2017-03-14T11:59:16.511Z,21.45
2017-03-14T12:00:26.549Z,21.64
2017-03-14T12:01:36.887Z,21.96
2017-03-14T12:02:47.230Z,22.09
2017-03-14T12:03:57.268Z,22.3
2017-03-14T12:05:07.613Z,22.33
2017-03-14T12:06:17.947Z,22.18
2017-03-14T12:07:28.285Z,22.15
2017-03-14T12:08:38.624Z,21.83
2017-03-14T12:09:48.978Z,21.73
2017-03-14T12:10:59.322Z,21.7
2017-03-14T12:12:09.348Z,21.7
2017-03-14T12:13:19.702Z,21.66
2017-03-14T12:14:30.065Z,21.52
2017-03-14T12:15:40.415Z,21.64
2017-03-14T12:16:50.439Z,21.74
2017-03-14T12:18:00.795Z,21.61
2017-03-14T12:19:11.141Z,21.55
2017-03-14T12:20:21.489Z,21.58
2017-03-14T12:21:31.828Z,21.38
2017-03-14T12:22:42.164Z,21.33
2017-03-14T12:23:52.225Z,21.48
2017-03-14T12:25:02.575Z,21.49
2017-03-14T12:26:12.909Z,21.51
2017-03-14T12:27:23.248Z,21.25
2017-03-14T12:28:33.274Z,20.94
2017-03-14T12:29:43.631Z,20.81
2017-03-14T12:30:53.987Z,20.48
2017-03-14T12:32:04.373Z,20.61
2017-03-14T12:33:14.456Z,20.32
2017-03-14T12:34:24.795Z,20.29
2017-03-14T12:35:35.144Z,20.19
2017-03-14T12:36:45.499Z,20.41
2017-03-14T12:37:56.021Z,20.66
2017-03-14T12:39:06.070Z,20.4
2017-03-14T12:40:16.095Z,20.29
2017-03-14T12:41:26.143Z,20.11
2017-03-14T12:42:36.490Z,19.98
2017-03-14T12:43:46.544Z,20.01
2017-03-14T12:44:56.578Z,20.25
2017-03-14T12:46:06.612Z,20.01
2017-03-14T12:47:16.643Z,20.01
2017-03-14T12:48:27.015Z,20.12
2017-03-14T12:49:37.075Z,20
2017-03-14T12:50:47.422Z,19.92
2017-03-14T12:51:57.757Z,19.78
2017-03-14T12:53:08.104Z,19.95
2017-03-14T12:54:18.462Z,19.98
2017-03-14T12:55:28.854Z,19.97
2017-03-14T12:56:38.571Z,19.92
2017-03-14T12:57:48.921Z,20
2017-03-14T12:58:59.290Z,20.07
2017-03-14T13:00:09.345Z,20.37
2017-03-14T13:01:19.673Z,20.53
2017-03-14T13:02:30.004Z,20.46
2017-03-14T13:03:40.043Z,20.38
2017-03-14T13:04:50.390Z,20.41
2017-03-14T13:06:00.719Z,20.37
2017-03-14T13:07:10.431Z,20.44
2017-03-14T13:08:20.758Z,20.42
2017-03-14T13:09:31.083Z,20.46
2017-03-14T13:10:41.115Z,20.4
2017-03-14T13:11:51.167Z,20.4
2017-03-14T13:13:01.490Z,20.46
2017-03-14T13:14:11.513Z,20.32
2017-03-14T13:15:21.873Z,20.22
2017-03-14T13:16:32.215Z,20.19
2017-03-14T13:17:42.240Z,20.04
2017-03-14T13:18:51.947Z,20.08
2017-03-14T13:20:02.284Z,20
2017-03-14T13:21:12.640Z,20.07
2017-03-14T13:22:22.987Z,20.05
2017-03-14T13:23:33.340Z,20.08
2017-03-14T13:24:43.672Z,20.11
2017-03-14T13:25:54.003Z,20.07
2017-03-14T13:27:04.385Z,20.02
2017-03-14T13:28:14.738Z,19.83
2017-03-14T13:29:25.086Z,19.57
2017-03-14T13:30:35.127Z,19.4
2017-03-14T13:31:45.475Z,19.25
2017-03-14T13:32:55.808Z,19.07
2017-03-14T13:34:05.849Z,19
2017-03-14T13:35:16.197Z,18.94
2017-03-14T13:36:26.250Z,18.94
2017-03-14T13:37:36.639Z,18.93
2017-03-14T13:38:46.985Z,18.82
2017-03-14T13:39:57.023Z,18.82
2017-03-14T13:41:07.359Z,18.78
2017-03-14T13:42:17.683Z,18.65
2017-03-14T13:43:28.031Z,18.42
2017-03-14T13:44:38.366Z,18.17
2017-03-14T13:45:48.380Z,18.06
2017-03-14T13:46:58.407Z,17.88
2017-03-14T13:48:08.441Z,17.79
2017-03-14T13:49:18.474Z,17.8
2017-03-14T13:50:28.824Z,17.74
2017-03-14T13:51:39.171Z,17.83
2017-03-14T13:52:49.203Z,17.71
2017-03-14T13:53:59.227Z,17.66
2017-03-14T13:55:09.273Z,17.54
2017-03-14T13:56:19.627Z,17.39
2017-03-14T13:57:29.676Z,17.31
2017-03-14T13:58:39.709Z,17.32
2017-03-14T13:59:49.732Z,17.22
2017-03-14T14:01:00.064Z,17.24
2017-03-14T14:02:09.780Z,17.18
2017-03-14T14:03:20.138Z,17.22
2017-03-14T14:04:30.193Z,17.22
2017-03-14T14:05:40.552Z,17.22
2017-03-14T14:06:50.917Z,17.43
2017-03-14T14:08:01.256Z,17.52
2017-03-14T14:09:11.281Z,17.79
2017-03-14T14:10:21.610Z,18.02
2017-03-14T14:11:31.975Z,18.11
2017-03-14T14:12:42.311Z,18.24
2017-03-14T14:13:52.675Z,18.47
2017-03-14T14:15:02.698Z,18.6
2017-03-14T14:16:13.030Z,18.59
2017-03-14T14:17:23.386Z,18.74
2017-03-14T14:18:33.414Z,18.76
2017-03-14T14:19:43.771Z,18.84
2017-03-14T14:20:54.113Z,18.81
2017-03-14T14:22:04.485Z,18.79
2017-03-14T14:23:14.837Z,18.94
2017-03-14T14:24:25.197Z,18.86
2017-03-14T14:25:35.205Z,18.97
2017-03-14T14:26:45.222Z,18.94
2017-03-14T14:27:55.554Z,19.05
2017-03-14T14:29:05.895Z,18.96
2017-03-14T14:30:15.917Z,18.86
2017-03-14T14:31:26.261Z,18.89
2017-03-14T14:32:36.601Z,18.96
2017-03-14T14:33:46.953Z,19.25
2017-03-14T14:34:57.305Z,19.55
2017-03-14T14:36:07.338Z,19.83
2017-03-14T14:37:17.068Z,20.02
2017-03-14T14:38:27.475Z,19.97
2017-03-14T14:39:37.561Z,19.95
2017-03-14T14:40:47.961Z,19.98
2017-03-14T14:41:58.333Z,19.75
2017-03-14T14:43:08.721Z,19.65
2017-03-14T14:44:19.127Z,19.74
2017-03-14T14:45:29.516Z,19.83
2017-03-14T14:46:39.945Z,19.78
2017-03-14T14:47:50.406Z,19.85
2017-03-14T14:49:00.834Z,19.79
2017-03-14T14:50:11.469Z,19.56
2017-03-14T14:51:21.593Z,19.5
2017-03-14T14:52:31.965Z,19.43
2017-03-14T14:53:42.149Z,19.64
2017-03-14T14:54:52.880Z,19.63
2017-03-14T14:56:03.314Z,19.55
2017-03-14T14:58:23.719Z,19.55
2017-03-14T14:59:34.186Z,19.32
2017-03-14T15:00:44.630Z,19.15
2017-03-14T15:01:55.184Z,19
2017-03-14T15:03:05.672Z,18.89
2017-03-14T15:04:16.093Z,18.76
2017-03-14T15:05:26.450Z,18.59
2017-03-14T15:06:36.882Z,18.47
2017-03-14T15:07:47.352Z,18.59
2017-03-14T15:08:57.453Z,18.5
2017-03-14T15:10:07.918Z,18.5
2017-03-14T15:11:18.105Z,18.42
2017-03-14T15:12:28.558Z,18.35
2017-03-14T15:13:38.984Z,18.27
2017-03-14T15:14:49.086Z,18.24
2017-03-14T15:15:59.315Z,18.16
2017-03-14T15:17:14.536Z,18.03
2017-03-14T15:18:27.002Z,17.94
2017-03-14T15:19:38.765Z,17.94
2017-03-14T15:20:49.799Z,17.94
2017-03-14T15:22:00.258Z,17.86
2017-03-14T15:23:10.540Z,17.92
2017-03-14T15:24:20.729Z,17.94
2017-03-14T15:25:31.147Z,17.9
2017-03-14T15:26:41.270Z,17.76
2017-03-14T15:27:51.514Z,17.68
2017-03-14T15:29:01.986Z,17.69
2017-03-14T15:30:12.364Z,17.55
2017-03-14T15:31:22.813Z,17.5
2017-03-14T15:32:32.997Z,17.31
2017-03-14T15:33:45.043Z,17.2
2017-03-14T15:34:57.615Z,17.21
2017-03-14T15:36:08.840Z,17.09
2017-03-14T15:37:20.425Z,17.1
2017-03-14T15:38:32.254Z,16.97
2017-03-14T15:39:43.520Z,16.92
2017-03-14T15:40:55.254Z,16.69
2017-03-14T15:42:07.551Z,16.65
2017-03-14T15:43:20.671Z,16.62
2017-03-14T15:44:32.109Z,16.59
2017-03-14T15:45:44.012Z,16.57
2017-03-14T15:46:55.903Z,16.44
2017-03-14T15:48:07.349Z,16.32
2017-03-14T15:49:19.074Z,16.4
2017-03-14T15:50:31.093Z,16.36
2017-03-14T15:51:43.465Z,16.27
2017-03-14T15:52:56.000Z,16.25
2017-03-14T15:54:07.971Z,16.17
2017-03-14T15:55:21.386Z,16.13